createdAt,value
2019-05-17T00:01:37.477Z,50.30
2019-05-17T00:04:22.913Z,50.20
2019-05-17T00:07:08.786Z,50.30
2019-05-17T00:09:57.027Z,49.80
2019-05-17T00:12:42.937Z,49.60
2019-05-17T00:15:28.989Z,49.10
2019-05-17T00:18:17.061Z,49.40
2019-05-17T00:21:03.190Z,48.70
2019-05-17T00:23:49.129Z,48.70
2019-05-17T00:26:36.267Z,48.60
2019-05-17T00:29:22.885Z,48.50
2019-05-17T00:32:08.876Z,49.30
2019-05-17T00:34:56.378Z,49.20
2019-05-17T00:37:43.073Z,48.50
2019-05-17T00:40:29.310Z,48.60
2019-05-17T00:43:16.896Z,48.60
2019-05-17T00:46:03.476Z,48.50
2019-05-17T00:48:49.784Z,49.00
2019-05-17T00:51:36.959Z,48.80
2019-05-17T00:54:23.601Z,48.40
2019-05-17T00:57:09.786Z,49.10
2019-05-17T00:59:56.542Z,49.50
2019-05-17T01:02:42.867Z,49.90
2019-05-17T01:05:29.137Z,49.50
2019-05-17T01:08:17.285Z,49.60
2019-05-17T01:11:04.190Z,49.90
2019-05-17T01:13:50.237Z,50.60
2019-05-17T01:16:36.767Z,51.20
2019-05-17T01:19:22.885Z,50.20
2019-05-17T01:22:08.933Z,50.00
2019-05-17T01:24:56.898Z,49.90
2019-05-17T01:27:43.073Z,49.90
2019-05-17T01:30:29.051Z,50.00
2019-05-17T01:33:17.085Z,50.50
2019-05-17T01:36:03.335Z,51.00
2019-05-17T01:38:50.421Z,51.00
2019-05-17T01:41:37.270Z,50.90
2019-05-17T01:44:23.537Z,51.30
2019-05-17T01:47:09.607Z,51.70
2019-05-17T01:49:57.532Z,51.40
2019-05-17T01:52:45.860Z,51.00
2019-05-17T01:55:31.821Z,50.40
2019-05-17T01:58:17.865Z,50.50
2019-05-17T02:01:07.360Z,50.70
2019-05-17T02:03:53.256Z,50.60
2019-05-17T02:06:39.265Z,50.30
2019-05-17T02:09:37.287Z,50.30
2019-05-17T02:12:13.558Z,50.60
2019-05-17T02:14:59.660Z,51.00
2019-05-17T02:17:46.886Z,50.60
2019-05-17T02:20:33.344Z,49.70
2019-05-17T02:23:19.418Z,49.50
2019-05-17T02:26:06.643Z,49.30
2019-05-17T02:28:53.122Z,49.60
2019-05-17T02:31:39.260Z,50.40
2019-05-17T02:34:25.251Z,50.80
2019-05-17T02:37:13.643Z,50.00
2019-05-17T02:40:04.488Z,50.80
2019-05-17T02:42:47.376Z,50.80
2019-05-17T02:45:33.536Z,49.70
2019-05-17T02:48:22.927Z,50.30
2019-05-17T02:51:07.721Z,51.20
2019-05-17T02:53:53.791Z,51.80
2019-05-17T02:56:43.258Z,52.40
2019-05-17T02:59:27.847Z,52.60
2019-05-17T03:02:14.038Z,52.90
2019-05-17T03:05:03.579Z,52.90
2019-05-17T03:07:52.594Z,52.50
2019-05-17T03:10:37.533Z,52.40
2019-05-17T03:13:23.737Z,52.60
2019-05-17T03:16:09.966Z,52.30
2019-05-17T03:18:55.821Z,52.20
2019-05-17T03:21:42.936Z,52.90
2019-05-17T03:24:29.410Z,52.40
2019-05-17T03:27:15.581Z,51.50
2019-05-17T03:30:04.023Z,51.30
2019-05-17T03:32:55.446Z,52.10
2019-05-17T03:35:38.764Z,52.20
2019-05-17T03:38:25.247Z,51.80
2019-05-17T03:41:22.241Z,52.20
2019-05-17T03:44:02.938Z,52.00
2019-05-17T03:46:47.464Z,52.20
2019-05-17T03:49:33.441Z,52.10
2019-05-17T03:52:22.238Z,51.40
2019-05-17T03:55:07.414Z,51.40
2019-05-17T03:57:53.640Z,52.20
2019-05-17T04:00:42.617Z,52.40
2019-05-17T04:03:32.382Z,52.40
2019-05-17T04:06:17.109Z,53.20
2019-05-17T04:09:05.353Z,53.10
2019-05-17T04:11:53.573Z,53.30
2019-05-17T04:14:42.653Z,54.00
2019-05-17T04:17:27.346Z,54.30
2019-05-17T04:20:14.423Z,54.70
2019-05-17T04:23:03.459Z,55.30
2019-05-17T04:25:48.553Z,55.50
2019-05-17T04:28:34.595Z,55.50
2019-05-17T04:31:22.793Z,54.80
2019-05-17T04:34:08.791Z,55.30
2019-05-17T04:36:54.862Z,54.90
2019-05-17T04:39:43.166Z,55.10
2019-05-17T04:42:28.679Z,55.00
2019-05-17T04:45:14.662Z,54.50
2019-05-17T04:48:03.903Z,54.70
2019-05-17T04:50:48.737Z,54.40
2019-05-17T04:53:34.843Z,54.60
2019-05-17T04:56:22.758Z,54.10
2019-05-17T04:59:09.140Z,54.70
2019-05-17T05:01:55.158Z,54.60
2019-05-17T05:04:43.550Z,55.30
2019-05-17T05:07:29.921Z,55.20
2019-05-17T05:10:15.871Z,55.10
2019-05-17T05:13:03.173Z,55.40
2019-05-17T05:15:52.021Z,54.90
2019-05-17T05:18:37.575Z,55.20
2019-05-17T05:21:24.841Z,55.80
2019-05-17T05:24:12.745Z,55.20
2019-05-17T05:26:58.669Z,55.30
2019-05-17T05:29:44.693Z,56.00
2019-05-17T05:32:31.528Z,55.60
2019-05-17T05:35:17.878Z,55.40
2019-05-17T05:38:04.009Z,56.10
2019-05-17T05:40:52.007Z,55.70
2019-05-17T05:43:38.254Z,55.20
2019-05-17T05:46:24.233Z,54.90
2019-05-17T05:49:12.360Z,55.30
2019-05-17T05:51:58.562Z,55.40
2019-05-17T05:54:44.596Z,55.40
2019-05-17T05:57:32.220Z,55.40
2019-05-17T06:00:18.875Z,55.20
2019-05-17T06:03:05.130Z,54.30
2019-05-17T06:05:52.554Z,55.00
2019-05-17T06:08:38.837Z,54.50
2019-05-17T06:11:24.832Z,54.70
2019-05-17T06:14:12.322Z,53.70
2019-05-17T06:16:58.813Z,53.90
2019-05-17T06:19:44.861Z,52.30
2019-05-17T06:22:31.798Z,51.00
2019-05-17T06:25:17.935Z,52.00
2019-05-17T06:28:03.873Z,52.70
2019-05-17T06:30:51.994Z,52.20
2019-05-17T06:33:38.147Z,51.50
2019-05-17T06:36:24.205Z,51.10
2019-05-17T06:39:11.704Z,51.80
2019-05-17T06:41:57.986Z,52.30
2019-05-17T06:44:43.981Z,51.00
2019-05-17T06:47:30.189Z,50.10
2019-05-17T06:50:16.363Z,49.90
2019-05-17T06:53:04.386Z,49.80
2019-05-17T06:55:50.388Z,51.20
2019-05-17T06:58:36.477Z,50.90
2019-05-17T07:01:22.454Z,50.50
2019-05-17T07:04:10.204Z,50.60
2019-05-17T07:07:31.069Z,50.10
2019-05-17T07:10:16.910Z,49.10
2019-05-17T07:13:03.029Z,48.10
2019-05-17T07:15:51.002Z,47.70
2019-05-17T07:18:37.101Z,47.70
2019-05-17T07:21:23.169Z,47.10
2019-05-17T07:24:10.071Z,46.40
2019-05-17T07:26:56.345Z,47.20
2019-05-17T07:29:42.541Z,47.90
2019-05-17T07:32:29.753Z,46.00
2019-05-17T07:35:16.080Z,46.60
2019-05-17T07:38:02.106Z,46.50
2019-05-17T07:40:50.229Z,45.80
2019-05-17T07:43:37.281Z,45.90
2019-05-17T07:46:23.097Z,46.10
2019-05-17T07:49:10.888Z,46.40
2019-05-17T07:51:56.978Z,45.20
2019-05-17T07:54:43.999Z,43.60
2019-05-17T07:57:30.143Z,44.40
2019-05-17T08:00:19.953Z,45.90
2019-05-17T08:03:05.590Z,43.40
2019-05-17T08:05:53.141Z,42.10
2019-05-17T08:08:40.937Z,44.00
2019-05-17T08:11:26.954Z,44.20
2019-05-17T08:14:25.515Z,42.50
2019-05-17T08:17:01.234Z,43.50
2019-05-17T08:19:49.645Z,41.00
2019-05-17T08:22:35.321Z,41.10
2019-05-17T08:25:21.452Z,40.90
2019-05-17T08:27:50.370Z,41.40
2019-05-17T08:30:20.742Z,39.80
2019-05-17T08:32:50.469Z,40.30
2019-05-17T08:35:19.796Z,40.60
2019-05-17T08:37:49.924Z,41.10
2019-05-17T08:40:19.799Z,39.70
2019-05-17T08:42:46.963Z,39.80
2019-05-17T08:45:14.711Z,39.40
2019-05-17T08:47:42.655Z,40.10
2019-05-17T08:50:11.541Z,39.40
2019-05-17T08:52:40.227Z,39.70
2019-05-17T08:55:09.720Z,39.60
2019-05-17T08:57:40.071Z,41.70
2019-05-17T09:00:10.164Z,39.60
2019-05-17T09:02:37.325Z,38.50
2019-05-17T09:05:05.382Z,40.20
2019-05-17T09:07:34.085Z,38.90
2019-05-17T09:10:02.107Z,37.30
2019-05-17T09:12:30.577Z,41.30
2019-05-17T09:15:00.239Z,38.30
2019-05-17T09:17:29.998Z,37.40
2019-05-17T09:19:57.720Z,39.10
2019-05-17T09:22:26.397Z,36.60
2019-05-17T09:24:54.145Z,36.60
2019-05-17T09:27:22.372Z,37.60
2019-05-17T09:29:50.210Z,37.70
2019-05-17T09:32:19.925Z,36.80
2019-05-17T09:34:49.646Z,37.60
2019-05-17T09:37:19.845Z,36.90
2019-05-17T09:39:46.581Z,35.70
2019-05-17T09:42:14.277Z,36.70
2019-05-17T09:44:41.901Z,38.10
2019-05-17T09:47:10.130Z,37.10
2019-05-17T09:49:39.489Z,35.50
2019-05-17T09:52:09.460Z,37.00
2019-05-17T09:54:44.272Z,35.60
2019-05-17T09:57:06.545Z,36.10
2019-05-17T09:59:34.202Z,37.00
2019-05-17T10:02:01.846Z,40.50
2019-05-17T10:04:30.440Z,36.00
2019-05-17T10:06:59.377Z,35.30
2019-05-17T10:09:27.112Z,34.80
2019-05-17T10:11:54.806Z,34.40
2019-05-17T10:14:27.654Z,34.60
2019-05-17T10:16:52.092Z,35.40
2019-05-17T10:19:23.407Z,34.70
2019-05-17T10:21:49.257Z,36.70
2019-05-17T10:24:16.914Z,33.70
2019-05-17T10:26:44.453Z,35.90
2019-05-17T10:29:12.135Z,35.60
2019-05-17T10:31:39.936Z,33.00
2019-05-17T10:34:09.606Z,34.00
2019-05-17T10:36:37.268Z,33.00
2019-05-17T10:39:06.024Z,32.90
2019-05-17T10:41:33.793Z,33.00
2019-05-17T10:44:01.677Z,33.90
2019-05-17T10:46:30.030Z,37.40
2019-05-17T10:48:57.910Z,38.50
2019-05-17T10:51:25.597Z,34.00
2019-05-17T10:53:53.249Z,34.00
2019-05-17T10:56:23.562Z,33.20
2019-05-17T10:58:50.574Z,34.50
2019-05-17T11:01:20.033Z,32.60
2019-05-17T11:03:50.105Z,33.60
2019-05-17T11:06:19.616Z,36.00
2019-05-17T11:08:49.952Z,36.40
2019-05-17T11:11:19.831Z,34.00
2019-05-17T11:13:47.085Z,33.60
2019-05-17T11:16:14.792Z,38.50
2019-05-17T11:18:42.461Z,35.30
2019-05-17T11:21:10.109Z,33.70
2019-05-17T11:23:37.787Z,33.10
2019-05-17T11:26:05.475Z,35.80
2019-05-17T11:28:33.217Z,35.20
2019-05-17T11:31:01.223Z,35.20
2019-05-17T11:33:29.276Z,34.60
2019-05-17T11:35:57.016Z,34.60
2019-05-17T11:38:24.821Z,34.20
2019-05-17T11:40:52.465Z,31.00
2019-05-17T11:43:20.133Z,32.10
2019-05-17T11:45:47.849Z,32.90
2019-05-17T11:48:15.804Z,32.60
2019-05-17T11:50:44.010Z,33.10
2019-05-17T11:53:11.701Z,33.20
2019-05-17T11:55:40.434Z,31.20
2019-05-17T11:58:08.150Z,30.40
2019-05-17T12:00:36.131Z,31.10
2019-05-17T12:03:04.236Z,31.10
2019-05-17T12:05:32.006Z,32.40
2019-05-17T12:07:59.653Z,31.50
2019-05-17T12:10:27.378Z,32.90
2019-05-17T12:12:55.235Z,30.90
2019-05-17T12:15:22.936Z,31.60
2019-05-17T12:17:50.694Z,32.60
2019-05-17T12:20:18.615Z,30.00
2019-05-17T12:22:46.333Z,32.40
2019-05-17T12:25:14.426Z,31.30
2019-05-17T12:27:42.124Z,32.10
2019-05-17T12:30:10.108Z,32.70
2019-05-17T12:32:37.958Z,32.00
2019-05-17T12:35:06.010Z,30.00
2019-05-17T12:37:33.754Z,29.70
2019-05-17T12:40:01.587Z,29.60
2019-05-17T12:42:29.418Z,30.80
2019-05-17T12:44:57.050Z,30.40
2019-05-17T12:47:24.856Z,30.40
2019-05-17T12:49:52.648Z,31.00
2019-05-17T12:52:20.261Z,30.30
2019-05-17T12:54:47.910Z,33.90
2019-05-17T12:57:15.586Z,29.50
2019-05-17T12:59:43.248Z,29.70
2019-05-17T13:02:12.408Z,31.10
2019-05-17T13:04:40.385Z,31.30
2019-05-17T13:07:08.046Z,31.60
2019-05-17T13:09:35.720Z,30.00
2019-05-17T13:12:03.407Z,29.90
2019-05-17T13:14:31.080Z,30.20
2019-05-17T13:16:59.573Z,29.60
2019-05-17T13:19:27.218Z,28.60
2019-05-17T13:21:54.901Z,29.30
2019-05-17T13:24:22.616Z,29.80
2019-05-17T13:26:50.309Z,28.90
2019-05-17T13:29:17.995Z,30.10
2019-05-17T13:31:45.716Z,29.90
2019-05-17T13:34:13.427Z,29.10
2019-05-17T13:36:41.115Z,28.70
2019-05-17T13:39:08.785Z,29.30
2019-05-17T13:41:36.575Z,31.20
2019-05-17T13:44:04.289Z,29.20
2019-05-17T13:46:33.415Z,30.20
2019-05-17T13:49:02.065Z,29.80
2019-05-17T13:51:30.294Z,29.70
2019-05-17T13:53:57.942Z,30.20
2019-05-17T13:56:25.633Z,28.80
2019-05-17T13:58:53.337Z,29.30
2019-05-17T14:01:21.087Z,30.00
2019-05-17T14:03:48.811Z,29.00
2019-05-17T14:06:16.485Z,29.10
2019-05-17T14:08:44.834Z,28.10
2019-05-17T14:11:12.715Z,29.70
2019-05-17T14:13:40.483Z,28.70
2019-05-17T14:16:08.354Z,30.00
2019-05-17T14:18:36.078Z,27.90
2019-05-17T14:21:03.929Z,29.30
2019-05-17T14:23:31.844Z,30.70
2019-05-17T14:25:59.592Z,28.50
2019-05-17T14:28:27.529Z,29.40
2019-05-17T14:30:55.299Z,29.00
2019-05-17T14:33:23.067Z,29.70
2019-05-17T14:35:51.873Z,28.80
2019-05-17T14:38:19.594Z,28.80
2019-05-17T14:41:05.892Z,28.50
2019-05-17T14:43:16.880Z,29.00
2019-05-17T14:45:44.509Z,28.30
2019-05-17T14:48:12.275Z,28.10
2019-05-17T14:50:40.409Z,28.90
2019-05-17T14:53:08.200Z,28.80
2019-05-17T14:55:35.872Z,29.80
2019-05-17T14:58:03.953Z,28.90
2019-05-17T15:00:31.805Z,29.50
2019-05-17T15:02:59.536Z,29.50
2019-05-17T15:05:27.153Z,29.50
2019-05-17T15:07:55.308Z,29.40
2019-05-17T15:10:23.036Z,29.00
2019-05-17T15:12:50.802Z,28.90
2019-05-17T15:15:25.655Z,28.30
2019-05-17T15:17:48.138Z,27.20
2019-05-17T15:20:15.871Z,28.30
2019-05-17T15:22:43.560Z,28.40
2019-05-17T15:25:11.385Z,28.30
2019-05-17T15:27:39.457Z,28.30
2019-05-17T15:30:08.551Z,29.20
2019-05-17T15:32:36.298Z,28.70
2019-05-17T15:35:05.559Z,28.80
2019-05-17T15:37:33.437Z,28.80
2019-05-17T15:40:01.092Z,29.90
2019-05-17T15:42:43.246Z,31.00
2019-05-17T15:44:58.482Z,30.70
2019-05-17T15:47:26.266Z,30.20
2019-05-17T15:49:53.938Z,30.00
2019-05-17T15:52:21.729Z,28.90
2019-05-17T15:54:50.493Z,30.00
2019-05-17T15:57:18.178Z,30.10
2019-05-17T15:59:45.829Z,28.70
2019-05-17T16:02:15.378Z,28.20
2019-05-17T16:04:46.245Z,28.40
2019-05-17T16:07:13.889Z,28.30
2019-05-17T16:09:41.518Z,28.30
2019-05-17T16:12:09.190Z,28.70
2019-05-17T16:14:36.862Z,29.70
2019-05-17T16:17:04.613Z,28.40
2019-05-17T16:19:32.360Z,28.50
2019-05-17T16:22:00.167Z,29.10
2019-05-17T16:24:27.903Z,30.20
2019-05-17T16:26:55.579Z,29.00
2019-05-17T16:29:23.247Z,31.50
2019-05-17T16:31:50.953Z,31.00
2019-05-17T16:34:18.904Z,30.10
2019-05-17T16:36:47.062Z,30.50
2019-05-17T16:39:15.267Z,31.90
2019-05-17T16:41:43.098Z,31.70
2019-05-17T16:44:10.853Z,31.00
2019-05-17T16:46:38.551Z,31.90
2019-05-17T16:49:06.278Z,32.40
2019-05-17T16:51:34.030Z,31.40
2019-05-17T16:54:01.792Z,32.60
2019-05-17T16:56:29.451Z,32.50
2019-05-17T16:58:57.111Z,33.70
2019-05-17T17:01:24.791Z,31.40
2019-05-17T17:03:52.545Z,30.90
2019-05-17T17:06:20.385Z,32.70
2019-05-17T17:08:48.042Z,31.60
2019-05-17T17:11:15.769Z,32.20
2019-05-17T17:13:43.409Z,31.50
2019-05-17T17:16:11.113Z,31.20
2019-05-17T17:18:38.943Z,31.20
2019-05-17T17:21:06.660Z,32.00
2019-05-17T17:23:34.393Z,32.40
2019-05-17T17:26:02.073Z,31.70
2019-05-17T17:28:29.901Z,33.10
2019-05-17T17:30:57.591Z,32.30
2019-05-17T17:33:25.313Z,31.50
2019-05-17T17:35:53.034Z,31.90
2019-05-17T17:38:20.738Z,33.40
2019-05-17T17:40:48.435Z,33.70
2019-05-17T17:43:16.081Z,33.30
2019-05-17T17:45:43.710Z,34.70
2019-05-17T17:48:11.430Z,35.50
2019-05-17T17:50:39.099Z,36.00
2019-05-17T17:53:06.925Z,36.20
2019-05-17T17:55:34.693Z,36.30
2019-05-17T17:58:02.331Z,36.40
2019-05-17T18:00:30.105Z,37.10
2019-05-17T18:02:57.965Z,36.30
2019-05-17T18:05:25.689Z,36.00
2019-05-17T18:07:53.343Z,36.20
2019-05-17T18:10:26.562Z,36.50
2019-05-17T18:12:55.255Z,36.70
2019-05-17T18:15:32.637Z,37.00
2019-05-17T18:18:00.352Z,37.60
2019-05-17T18:20:28.023Z,37.30
2019-05-17T18:22:55.834Z,37.50
2019-05-17T18:25:23.613Z,38.40
2019-05-17T18:27:51.307Z,38.30
2019-05-17T18:30:19.094Z,38.30
2019-05-17T18:32:46.956Z,37.60
2019-05-17T18:35:14.879Z,37.10
2019-05-17T18:37:42.659Z,37.20
2019-05-17T18:40:10.644Z,38.20
2019-05-17T18:42:38.337Z,38.40
2019-05-17T18:45:06.414Z,38.10
2019-05-17T18:47:34.226Z,38.20
2019-05-17T18:50:02.020Z,38.20
2019-05-17T18:52:29.800Z,36.60
2019-05-17T18:54:57.566Z,38.30
2019-05-17T18:57:25.343Z,38.20
2019-05-17T18:59:53.086Z,38.10
2019-05-17T19:02:20.831Z,38.00
2019-05-17T19:04:48.479Z,38.00
2019-05-17T19:07:16.195Z,38.00
2019-05-17T19:09:43.994Z,38.10
2019-05-17T19:12:11.736Z,37.90
2019-05-17T19:14:42.860Z,37.90
2019-05-17T19:17:08.951Z,38.60
2019-05-17T19:19:36.618Z,38.70
2019-05-17T19:22:04.393Z,38.70
2019-05-17T19:24:32.037Z,39.10
2019-05-17T19:26:59.725Z,39.80
2019-05-17T19:29:27.435Z,39.90
2019-05-17T19:31:55.153Z,39.30
2019-05-17T19:34:22.842Z,39.50
2019-05-17T19:36:50.500Z,39.50
2019-05-17T19:39:18.191Z,39.30
2019-05-17T19:41:45.881Z,39.30
2019-05-17T19:44:13.498Z,40.40
2019-05-17T19:46:41.238Z,40.30
2019-05-17T19:49:08.865Z,39.90
2019-05-17T19:51:36.675Z,40.10
2019-05-17T19:54:04.745Z,39.90
2019-05-17T19:56:32.350Z,40.20
2019-05-17T19:59:00.498Z,40.40
2019-05-17T20:01:28.281Z,40.40
2019-05-17T20:03:57.035Z,40.80
2019-05-17T20:06:24.926Z,41.00
2019-05-17T20:08:52.717Z,40.60
2019-05-17T20:11:33.641Z,41.40
2019-05-17T20:13:51.057Z,40.90
2019-05-17T20:16:18.698Z,41.20
2019-05-17T20:18:46.385Z,40.50
2019-05-17T20:21:14.025Z,41.20
2019-05-17T20:23:43.657Z,41.70
2019-05-17T20:26:11.263Z,42.20
2019-05-17T20:28:38.940Z,41.80
2019-05-17T20:31:06.601Z,42.40
2019-05-17T20:33:34.393Z,41.50
2019-05-17T20:36:02.131Z,41.60
2019-05-17T20:38:29.885Z,41.90
2019-05-17T20:40:58.165Z,41.40
2019-05-17T20:43:25.865Z,41.10
2019-05-17T20:45:53.597Z,40.40
2019-05-17T20:48:21.266Z,40.40
2019-05-17T20:50:48.960Z,40.20
2019-05-17T20:53:19.265Z,41.80
2019-05-17T20:55:46.286Z,42.00
2019-05-17T20:58:14.057Z,41.90
2019-05-17T21:00:42.985Z,41.90
2019-05-17T21:03:13.764Z,42.10
2019-05-17T21:05:40.210Z,41.40
2019-05-17T21:08:07.978Z,41.80
2019-05-17T21:10:35.614Z,42.30
2019-05-17T21:13:03.366Z,41.90
2019-05-17T21:15:31.113Z,41.70
2019-05-17T21:17:58.705Z,42.10
2019-05-17T21:20:26.265Z,42.20
2019-05-17T21:22:53.786Z,41.70
2019-05-17T21:25:21.486Z,41.70
2019-05-17T21:27:49.137Z,42.00
2019-05-17T21:30:16.834Z,41.70
2019-05-17T21:32:44.496Z,41.60
2019-05-17T21:35:12.126Z,41.60
2019-05-17T21:37:39.802Z,41.50
2019-05-17T21:40:08.661Z,41.40
2019-05-17T21:42:36.375Z,41.40
2019-05-17T21:45:04.418Z,41.80
2019-05-17T21:47:32.097Z,41.40
2019-05-17T21:49:59.716Z,41.40
2019-05-17T21:52:27.420Z,42.50
2019-05-17T21:54:55.048Z,42.70
2019-05-17T21:57:22.774Z,43.00
2019-05-17T21:59:50.450Z,43.20
2019-05-17T22:02:18.244Z,43.30
2019-05-17T22:04:45.983Z,42.70
2019-05-17T22:07:13.644Z,43.80
2019-05-17T22:09:41.377Z,43.10
2019-05-17T22:12:10.393Z,43.10
2019-05-17T22:14:38.053Z,43.50
2019-05-17T22:17:05.733Z,43.80
2019-05-17T22:19:33.437Z,43.80
2019-05-17T22:22:01.169Z,44.20
2019-05-17T22:24:28.847Z,44.20
2019-05-17T22:26:56.477Z,44.70
2019-05-17T22:29:24.145Z,44.50
2019-05-17T22:31:51.827Z,44.80
2019-05-17T22:34:19.493Z,44.90
2019-05-17T22:36:47.141Z,44.90
2019-05-17T22:39:15.066Z,45.00
2019-05-17T22:41:42.699Z,45.00
2019-05-17T22:44:10.412Z,45.30
2019-05-17T22:46:38.109Z,45.00
2019-05-17T22:49:05.761Z,45.20
2019-05-17T22:51:33.462Z,45.10
2019-05-17T22:54:01.099Z,44.80
2019-05-17T22:56:28.745Z,44.80
2019-05-17T22:58:56.392Z,45.30
2019-05-17T23:01:24.050Z,45.60
2019-05-17T23:03:51.826Z,45.60
2019-05-17T23:06:19.461Z,46.10
2019-05-17T23:08:47.093Z,46.30
2019-05-17T23:11:14.750Z,46.30
2019-05-17T23:13:42.424Z,45.90
2019-05-17T23:16:11.573Z,46.40
2019-05-17T23:18:39.283Z,46.60
2019-05-17T23:21:06.913Z,48.00
2019-05-17T23:23:34.572Z,47.30
2019-05-17T23:26:02.286Z,47.60
2019-05-17T23:28:29.977Z,47.30
2019-05-17T23:30:57.659Z,47.40
2019-05-17T23:33:25.453Z,47.70
2019-05-17T23:35:53.208Z,47.50
2019-05-17T23:38:20.702Z,47.50
2019-05-17T23:40:48.376Z,47.10
2019-05-17T23:43:16.140Z,47.10
2019-05-17T23:45:43.762Z,47.20
2019-05-17T23:48:11.481Z,47.30
2019-05-17T23:50:39.090Z,47.20
2019-05-17T23:53:06.808Z,47.30
2019-05-17T23:55:34.480Z,47.50
2019-05-17T23:58:02.108Z,47.70
